Wetterdaten: aktuell Freitag, 08.05.2026 12:15
Datum Zeit Temp. A. Feuchte A. Luftdruck Regen Wind Richtung Richtung Taupunkt Windchill
08.05.2026 12:15 16,7 °C 43 % 1011,2 hPa 0,0 l/m² 5,9 km/h (2 Bft) O±67.5° 85 ° 4,1 °C 16,7 °C
08.05.2026 12:13 16,7 °C 43 % 1011,2 hPa 0,0 l/m² 7,9 km/h (2 Bft) NO±45° 50 ° 4,1 °C 15,9 °C
08.05.2026 12:11 16,6 °C 44 % 1011,2 hPa 0,0 l/m² 9,7 km/h (2 Bft) N 360 ° 4,3 °C 15,0 °C
08.05.2026 12:09 16,5 °C 45 % 1011,2 hPa 0,0 l/m² 9,7 km/h (2 Bft) N 360 ° 4,5 °C 14,9 °C
08.05.2026 12:07 16,5 °C 45 % 1011,2 hPa 0,0 l/m² 0,2 km/h (0 Bft) N-NW 330 ° 4,5 °C 16,5 °C
08.05.2026 12:05 16,3 °C 45 % 1011,2 hPa 0,0 l/m² 3,9 km/h (1 Bft) N-NW 330 ° 4,3 °C 16,3 °C
08.05.2026 12:03 16,0 °C 45 % 1011,2 hPa 0,0 l/m² 1,4 km/h (1 Bft) N-NW±22.5° 335 ° 4,1 °C 16,0 °C
08.05.2026 12:01 16,0 °C 45 % 1011,2 hPa 0,0 l/m² 1,4 km/h (1 Bft) N-NW±22.5° 335 ° 4,1 °C 16,0 °C
08.05.2026 11:58 15,9 °C 46 % 1011,2 hPa 0,0 l/m² 5,4 km/h (1 Bft) N±22.5° 5 ° 4,3 °C 15,9 °C
08.05.2026 11:56 15,9 °C 47 % 1011,2 hPa 0,0 l/m² 1,5 km/h (1 Bft) NO±45° 45 ° 4,6 °C 15,9 °C
08.05.2026 11:55 15,9 °C 47 % 1011,2 hPa 0,0 l/m² 9,5 km/h (2 Bft) N±45° 10 ° 4,6 °C 14,3 °C
08.05.2026 11:53 15,7 °C 46 % 1011,2 hPa 0,0 l/m² 9,5 km/h (2 Bft) N±45° 10 ° 4,1 °C 14,1 °C
08.05.2026 11:51 15,7 °C 47 % 1011,2 hPa 0,0 l/m² 5,6 km/h (1 Bft) NW±22.5° 315 ° 4,4 °C 15,7 °C
08.05.2026 11:49 15,7 °C 47 % 1011,2 hPa 0,0 l/m² 5,8 km/h (2 Bft) N-NW±67.5° 330 ° 4,4 °C 15,7 °C
08.05.2026 11:47 15,6 °C 46 % 1011,2 hPa 0,0 l/m² 5,8 km/h (2 Bft) N-NW±67.5° 330 ° 4,0 °C 15,6 °C
08.05.2026 11:45 15,5 °C 47 % 1011,2 hPa 0,0 l/m² 10,1 km/h (2 Bft) N±22.5° 350 ° 4,2 °C 13,6 °C
08.05.2026 11:43 15,3 °C 48 % 1011,3 hPa 0,0 l/m² 5,6 km/h (1 Bft) N±22.5° 355 ° 4,4 °C 15,3 °C
08.05.2026 11:41 15,3 °C 48 % 1011,3 hPa 0,0 l/m² 6,6 km/h (2 Bft) N±22.5° 350 ° 4,4 °C 15,2 °C
08.05.2026 11:39 15,3 °C 48 % 1011,3 hPa 0,0 l/m² 6,6 km/h (2 Bft) N±22.5° 350 ° 4,4 °C 15,2 °C
08.05.2026 11:37 15,2 °C 47 % 1011,3 hPa 0,0 l/m² 3,1 km/h (1 Bft) N 355 ° 4,0 °C 15,2 °C
08.05.2026 11:35 15,2 °C 47 % 1011,3 hPa 0,0 l/m² 2,5 km/h (1 Bft) O±67.5° 100 ° 4,0 °C 15,2 °C
08.05.2026 11:33 15,3 °C 48 % 1011,3 hPa 0,0 l/m² 2,5 km/h (1 Bft) O±67.5° 100 ° 4,4 °C 15,3 °C
08.05.2026 11:31 15,3 °C 49 % 1011,3 hPa 0,0 l/m² 1,0 km/h (0 Bft) N-NO±67.5° 15 ° 4,7 °C 15,3 °C
08.05.2026 11:29 15,3 °C 49 % 1011,3 hPa 0,0 l/m² 5,7 km/h (1 Bft) N 355 ° 4,7 °C 15,3 °C
08.05.2026 11:27 15,0 °C 48 % 1011,3 hPa 0,0 l/m² 6,4 km/h (2 Bft) N 360 ° 4,1 °C 15,0 °C
08.05.2026 11:25 15,0 °C 48 % 1011,3 hPa 0,0 l/m² 6,4 km/h (2 Bft) N 360 ° 4,1 °C 15,0 °C
08.05.2026 11:23 15,0 °C 48 % 1011,3 hPa 0,0 l/m² 0,3 km/h (0 Bft) N 355 ° 4,1 °C 15,0 °C
08.05.2026 11:21 15,1 °C 47 % 1011,3 hPa 0,0 l/m² 1,6 km/h (1 Bft) N-NW±45° 345 ° 3,9 °C 15,1 °C
08.05.2026 11:18 14,9 °C 48 % 1011,3 hPa 0,0 l/m² 1,6 km/h (1 Bft) O-NO±67.5° 75 ° 4,0 °C 14,9 °C
08.05.2026 11:16 14,9 °C 48 % 1011,3 hPa 0,0 l/m² 1,6 km/h (1 Bft) O-NO±67.5° 75 ° 4,0 °C 14,9 °C
08.05.2026 11:15 15,1 °C 48 % 1011,3 hPa 0,0 l/m² 10,9 km/h (2 Bft) O-NO±67.5° 65 ° 4,2 °C 12,8 °C
08.05.2026 11:13 15,1 °C 48 % 1011,3 hPa 0,0 l/m² 1,5 km/h (1 Bft) NO±45° 50 ° 4,2 °C 15,1 °C
08.05.2026 11:11 15,1 °C 48 % 1011,3 hPa 0,0 l/m² 1,5 km/h (1 Bft) NO±45° 50 ° 4,2 °C 15,1 °C
08.05.2026 11:09 15,1 °C 48 % 1011,3 hPa 0,0 l/m² 7,2 km/h (2 Bft) N-NO±67.5° 25 ° 4,2 °C 14,6 °C
08.05.2026 11:07 15,2 °C 49 % 1011,3 hPa 0,0 l/m² 1,9 km/h (1 Bft) O±22.5° 95 ° 4,6 °C 15,2 °C
08.05.2026 11:05 15,2 °C 49 % 1011,3 hPa 0,0 l/m² 1,0 km/h (0 Bft) N-NO±45° 25 ° 4,6 °C 15,2 °C
08.05.2026 11:03 15,0 °C 49 % 1011,3 hPa 0,0 l/m² 1,0 km/h (0 Bft) N-NO±45° 25 ° 4,4 °C 15,0 °C
08.05.2026 11:01 14,7 °C 48 % 1011,3 hPa 0,0 l/m² 8,4 km/h (2 Bft) N±22.5° 5 ° 3,8 °C 13,6 °C
08.05.2026 10:59 14,7 °C 48 % 1011,3 hPa 0,0 l/m² 6,3 km/h (2 Bft) N±22.5° 360 ° 3,8 °C 14,7 °C
08.05.2026 10:57 14,9 °C 49 % 1011,3 hPa 0,0 l/m² 6,5 km/h (2 Bft) O-NO 65 ° 4,3 °C 14,9 °C
08.05.2026 10:55 14,7 °C 50 % 1011,3 hPa 0,0 l/m² 6,5 km/h (2 Bft) O-NO 65 ° 4,4 °C 14,7 °C
_ Min-Zeit 06:29 12:13 00:01 - 00:07 - - 10:45 06:29
Minimum _ 7,0 °C 43 % 1010,4 hPa - 0,0 km/h (0 Bft) - - 3,6 °C 7,0 °C
_ Max-Zeit 12:13 06:57 08:51 00:01 11:15 - - 00:01 12:15
Maximum _ 16,7 °C 88 % 1012,5 hPa 0,0 l/m² 10,9 km/h
O-NO (2 Bft)
- - 7,3 °C 16,7 °C
Durchschnitt _ 10,3 °C 74 % 1010,9 hPa #0,0 l/m² 1,0 km/h (0 Bft) N - 5,5 °C 10,2 °C